This is the latest recevied weather packets stored in our database for station/object LTAC. If no packets are shown the sender has not sent any weather packets the latest 10 day(s).
| Time | Temp. | Humidity | Pressure | Rain* | Wind** | Luminosity | Snow |
|---|---|---|---|---|---|---|---|
| 1777624205 | 15° C | 54% | 1012 hPa | - | - | - | - |
| 1777623304 | 15° C | 54% | 1012 hPa | - | - | - | - |
| 1777622404 | 15° C | 54% | 1012 hPa | - | - | - | - |
| 1777621503 | 15° C | 51% | 1012 hPa | - | - | - | - |
| 1777620605 | 15° C | 51% | 1012 hPa | - | - | - | - |
| 1777619704 | 13.89° C | 50% | 1011 hPa | - | - | - | - |
| 1777618804 | 13.89° C | 50% | 1011 hPa | - | - | - | - |
| 1777617904 | 12.78° C | 58% | 1011 hPa | - | - | - | - |
| 1777617004 | 12.78° C | 58% | 1011 hPa | - | - | - | - |
| 1777612504 | 7.78° C | 75% | 1012 hPa | - | - | - | - |
| 1777611604 | 7.78° C | 75% | 1012 hPa | - | - | - | - |
| 1777610704 | 7.22° C | 81% | 1012 hPa | - | - | - | - |
| 1777608904 | 6.11° C | 87% | 1012 hPa | - | - | - | - |
| 1777608005 | 6.11° C | 87% | 1012 hPa | - | - | - | - |
| 1777607104 | 7.78° C | 75% | 1012 hPa | - | - | - | - |
| 1777606204 | 7.78° C | 75% | 1012 hPa | - | - | - | - |
| 1777605303 | 7.22° C | 75% | 1012 hPa | - | - | - | - |
| 1777604405 | 7.22° C | 75% | 1012 hPa | - | - | - | - |
| 1777603504 | 7.78° C | 75% | 1012 hPa | - | - | - | - |
| 1777601704 | 7.22° C | 81% | 1012 hPa | - | - | - | - |
| 1777599904 | 7.22° C | 81% | 1012 hPa | - | - | - | - |
| 1777597203 | 6.11° C | 87% | 1012 hPa | - | - | - | - |
| 1777594504 | 7.78° C | 75% | 1013 hPa | - | - | - | - |
| 1777591804 | 7.78° C | 75% | 1013 hPa | - | - | - | - |
| 1777590005 | 10° C | 61% | 1013 hPa | - | - | - | - |
* Rain since midnight (hover to see other rain measurements)
** Current wind speed in m/s (hover to see current wind gust speed)